createdAt,value
2017-12-03T00:02:22.733Z,1.20
2017-12-03T00:04:51.660Z,1.40
2017-12-03T00:07:19.951Z,1.40
2017-12-03T00:09:48.202Z,1.40
2017-12-03T00:12:16.463Z,1.30
2017-12-03T00:14:44.803Z,1.20
2017-12-03T00:17:13.083Z,1.30
2017-12-03T00:19:41.552Z,1.40
2017-12-03T00:22:09.817Z,1.30
2017-12-03T00:24:38.119Z,1.50
2017-12-03T00:27:08.067Z,1.50
2017-12-03T00:29:36.379Z,1.50
2017-12-03T00:32:04.707Z,1.60
2017-12-03T00:34:32.947Z,1.60
2017-12-03T00:37:01.200Z,1.70
2017-12-03T00:39:29.503Z,1.70
2017-12-03T00:41:57.759Z,1.60
2017-12-03T00:44:26.065Z,1.60
2017-12-03T00:46:54.298Z,1.60
2017-12-03T00:49:22.580Z,1.60
2017-12-03T00:51:50.805Z,1.40
2017-12-03T00:54:19.036Z,1.50
2017-12-03T00:56:47.253Z,1.20
2017-12-03T00:59:16.276Z,1.60
2017-12-03T01:01:44.532Z,1.50
2017-12-03T01:04:12.859Z,1.50
2017-12-03T01:06:41.138Z,1.50
2017-12-03T01:09:10.230Z,1.50
2017-12-03T01:11:38.572Z,1.50
2017-12-03T01:14:06.845Z,1.60
2017-12-03T01:16:35.036Z,1.60
2017-12-03T01:19:03.504Z,1.70
2017-12-03T01:21:31.780Z,1.70
2017-12-03T01:24:00.059Z,1.70
2017-12-03T01:26:28.290Z,1.70
2017-12-03T01:28:56.495Z,1.60
2017-12-03T01:31:24.749Z,1.60
2017-12-03T01:33:53.085Z,1.60
2017-12-03T01:36:21.319Z,1.40
2017-12-03T01:38:49.569Z,1.60
2017-12-03T01:41:18.255Z,1.50
2017-12-03T01:43:46.579Z,1.60
2017-12-03T01:46:15.682Z,1.30
2017-12-03T01:48:44.012Z,1.30
2017-12-03T01:51:13.024Z,1.10
2017-12-03T01:53:41.279Z,1.00
2017-12-03T01:56:09.518Z,1.10
2017-12-03T01:58:37.759Z,1.10
2017-12-03T02:01:06.452Z,1.20
2017-12-03T02:03:35.571Z,1.30
2017-12-03T02:06:03.801Z,1.30
2017-12-03T02:08:32.066Z,1.50
2017-12-03T02:11:01.715Z,1.50
2017-12-03T02:13:29.978Z,1.50
2017-12-03T02:16:00.590Z,1.40
2017-12-03T02:18:28.812Z,1.40
2017-12-03T02:20:57.843Z,1.40
2017-12-03T02:23:27.031Z,1.30
2017-12-03T02:25:56.829Z,1.00
2017-12-03T02:28:25.072Z,1.00
2017-12-03T02:30:53.302Z,0.70
2017-12-03T02:33:22.286Z,0.70
2017-12-03T02:35:50.940Z,0.70
2017-12-03T02:38:19.148Z,0.40
2017-12-03T02:40:48.248Z,0.50
2017-12-03T02:43:16.458Z,0.60
2017-12-03T02:45:44.681Z,0.60
2017-12-03T02:48:12.881Z,0.50
2017-12-03T02:50:41.940Z,0.40
2017-12-03T02:53:11.288Z,0.40
2017-12-03T02:55:40.300Z,0.30
2017-12-03T02:58:08.545Z,0.20
2017-12-03T03:00:36.759Z,0.10
2017-12-03T03:03:05.011Z,0.30
2017-12-03T03:05:34.092Z,0.00
2017-12-03T03:08:02.424Z,0.00
2017-12-03T03:10:30.795Z,0.10
2017-12-03T03:12:59.034Z,0.30
2017-12-03T03:15:28.038Z,0.60
2017-12-03T03:17:57.076Z,0.70
2017-12-03T03:20:27.122Z,0.70
2017-12-03T03:22:55.496Z,0.80
2017-12-03T03:25:23.708Z,0.80
2017-12-03T03:27:51.932Z,1.00
2017-12-03T03:30:20.196Z,0.90
2017-12-03T03:32:48.462Z,0.90
2017-12-03T03:35:16.699Z,0.90
2017-12-03T03:37:44.988Z,1.10
2017-12-03T03:40:13.928Z,1.10
2017-12-03T03:42:42.885Z,1.20
2017-12-03T03:45:11.134Z,1.20
2017-12-03T03:47:39.370Z,1.20
2017-12-03T03:50:08.449Z,1.20
2017-12-03T03:52:36.799Z,1.40
2017-12-03T03:55:05.009Z,1.30
2017-12-03T03:57:33.324Z,1.20
2017-12-03T04:00:01.577Z,1.40
2017-12-03T04:02:30.940Z,1.50
2017-12-03T04:07:33.542Z,1.20
2017-12-03T04:10:01.797Z,1.00
2017-12-03T04:12:29.991Z,1.10
2017-12-03T04:14:58.256Z,0.70
2017-12-03T04:17:26.491Z,0.40
2017-12-03T04:19:54.719Z,0.20
2017-12-03T04:22:23.708Z,0.30
2017-12-03T04:24:52.718Z,0.40
2017-12-03T04:27:20.963Z,0.40
2017-12-03T04:29:49.451Z,0.40
2017-12-03T04:32:18.592Z,0.30
2017-12-03T04:34:46.804Z,0.30
2017-12-03T04:37:15.013Z,0.20
2017-12-03T04:39:44.110Z,0.60
2017-12-03T04:42:12.351Z,0.50
2017-12-03T04:44:40.628Z,0.70
2017-12-03T04:47:08.908Z,0.80
2017-12-03T04:49:37.957Z,0.70
2017-12-03T04:52:06.264Z,0.70
2017-12-03T04:54:36.035Z,0.90
2017-12-03T04:57:04.562Z,0.60
2017-12-03T04:59:32.877Z,0.40
2017-12-03T05:02:01.077Z,0.60
2017-12-03T05:04:30.984Z,0.90
2017-12-03T05:06:59.220Z,0.90
2017-12-03T05:09:28.296Z,0.90
2017-12-03T05:11:56.688Z,0.90
2017-12-03T05:14:24.912Z,0.70
2017-12-03T05:16:53.216Z,1.00
2017-12-03T05:19:21.469Z,1.10
2017-12-03T05:21:49.629Z,1.10
2017-12-03T05:24:18.293Z,0.80
2017-12-03T05:26:47.281Z,0.50
2017-12-03T05:29:15.632Z,0.40
2017-12-03T05:31:44.035Z,0.40
2017-12-03T05:34:12.460Z,0.10
2017-12-03T05:36:42.874Z,0.00
2017-12-03T05:39:12.442Z,-0.10
2017-12-03T05:41:41.247Z,-0.20
2017-12-03T05:44:09.544Z,-0.20
2017-12-03T05:46:37.757Z,0.00
2017-12-03T05:49:06.049Z,-0.10
2017-12-03T05:51:35.055Z,-0.10
2017-12-03T05:54:03.308Z,-0.20
2017-12-03T05:56:31.721Z,-0.20
2017-12-03T05:58:59.947Z,-0.20
2017-12-03T06:01:28.176Z,-0.10
2017-12-03T06:03:57.232Z,0.20
2017-12-03T06:06:25.452Z,0.20
2017-12-03T06:08:53.666Z,0.00
2017-12-03T06:11:21.870Z,-0.10
2017-12-03T06:13:50.068Z,0.10
2017-12-03T06:16:18.268Z,0.30
2017-12-03T06:18:46.685Z,0.20
2017-12-03T06:21:16.620Z,0.50
2017-12-03T06:23:45.639Z,0.60
2017-12-03T06:26:13.876Z,0.60
2017-12-03T06:28:42.901Z,0.10
2017-12-03T06:31:11.103Z,0.10
2017-12-03T06:33:40.160Z,0.30
2017-12-03T06:36:08.876Z,0.30
2017-12-03T06:38:37.167Z,0.50
2017-12-03T06:41:05.501Z,0.30
2017-12-03T06:43:33.916Z,0.00
2017-12-03T06:46:06.082Z,-0.10
2017-12-03T06:48:35.193Z,-0.10
2017-12-03T06:51:03.901Z,-0.20
2017-12-03T06:53:32.108Z,-0.10
2017-12-03T06:56:00.331Z,-0.10
2017-12-03T06:58:28.544Z,-0.10
2017-12-03T07:00:56.772Z,-0.10
2017-12-03T07:03:25.155Z,0.00
2017-12-03T07:05:53.423Z,0.20
2017-12-03T07:08:21.636Z,0.40
2017-12-03T07:10:51.471Z,0.70
2017-12-03T07:13:19.690Z,0.70
2017-12-03T07:15:47.982Z,0.90
2017-12-03T07:18:16.267Z,0.70
2017-12-03T07:20:44.519Z,1.00
2017-12-03T07:23:12.823Z,1.10
2017-12-03T07:25:42.101Z,1.00
2017-12-03T07:28:10.924Z,0.60
2017-12-03T07:30:39.780Z,0.80
2017-12-03T07:33:08.848Z,1.00
2017-12-03T07:35:37.072Z,0.90
2017-12-03T07:38:05.299Z,1.00
2017-12-03T07:40:33.561Z,1.20
2017-12-03T07:43:01.826Z,1.30
2017-12-03T07:45:32.603Z,0.80
2017-12-03T07:48:01.297Z,0.80
2017-12-03T07:50:29.554Z,1.00
2017-12-03T07:52:58.579Z,1.20
2017-12-03T07:55:27.649Z,1.30
2017-12-03T07:57:55.960Z,1.30
2017-12-03T08:02:58.905Z,1.40
2017-12-03T08:05:27.195Z,1.40
2017-12-03T08:07:55.441Z,1.40
2017-12-03T08:10:23.647Z,1.50
2017-12-03T08:12:51.881Z,1.50
2017-12-03T08:15:20.261Z,1.50
2017-12-03T08:17:49.287Z,1.50
2017-12-03T08:20:17.488Z,1.50
2017-12-03T08:22:45.743Z,1.20
2017-12-03T08:25:14.971Z,1.20
2017-12-03T08:27:44.043Z,1.40
2017-12-03T08:30:13.457Z,1.40
2017-12-03T08:32:41.675Z,1.50
2017-12-03T08:35:09.897Z,1.50
2017-12-03T08:37:38.116Z,1.40
2017-12-03T08:40:07.097Z,1.60
2017-12-03T08:42:35.464Z,1.60
2017-12-03T08:45:03.760Z,1.60
2017-12-03T08:47:32.011Z,1.20
2017-12-03T08:50:00.332Z,1.10
2017-12-03T08:52:28.568Z,1.30
2017-12-03T08:54:57.557Z,1.30
2017-12-03T08:57:25.840Z,1.30
2017-12-03T08:59:54.114Z,1.40
2017-12-03T09:02:23.090Z,1.20
2017-12-03T09:04:51.324Z,1.40
2017-12-03T09:07:20.413Z,1.50
2017-12-03T09:09:48.639Z,1.40
2017-12-03T09:12:16.855Z,1.30
2017-12-03T09:14:45.142Z,1.40
2017-12-03T09:17:14.106Z,1.40
2017-12-03T09:19:42.448Z,1.40
2017-12-03T09:22:10.744Z,1.40
2017-12-03T09:24:39.070Z,1.40
2017-12-03T09:27:08.542Z,1.50
2017-12-03T09:29:36.812Z,1.60
2017-12-03T09:32:05.196Z,1.60
2017-12-03T09:34:33.429Z,1.60
2017-12-03T09:37:02.368Z,1.60
2017-12-03T09:39:30.621Z,1.20
2017-12-03T09:41:59.110Z,1.10
2017-12-03T09:44:28.303Z,1.30
2017-12-03T09:46:56.554Z,1.30
2017-12-03T09:49:28.076Z,1.40
2017-12-03T09:51:56.314Z,1.50
2017-12-03T09:54:24.668Z,1.40
2017-12-03T09:56:52.910Z,1.40
2017-12-03T09:59:22.079Z,1.40
2017-12-03T10:01:50.367Z,1.40
2017-12-03T10:04:18.616Z,1.50
2017-12-03T10:06:46.939Z,1.30
2017-12-03T10:09:15.264Z,1.40
2017-12-03T10:11:43.961Z,1.40
2017-12-03T10:14:12.544Z,1.10
2017-12-03T10:16:41.914Z,1.40
2017-12-03T10:19:11.302Z,1.50
2017-12-03T10:21:41.620Z,1.70
2017-12-03T10:24:09.936Z,1.70
2017-12-03T10:26:38.304Z,1.60
2017-12-03T10:29:06.536Z,1.60
2017-12-03T10:31:34.745Z,1.80
2017-12-03T10:34:02.995Z,1.70
2017-12-03T10:36:31.282Z,1.60
2017-12-03T10:39:01.042Z,1.80
2017-12-03T10:41:30.178Z,1.90
2017-12-03T10:43:58.400Z,1.90
2017-12-03T10:46:30.253Z,1.90
2017-12-03T10:48:59.088Z,1.90
2017-12-03T10:51:27.344Z,1.80
2017-12-03T10:53:55.575Z,1.80
2017-12-03T10:56:24.551Z,1.90
2017-12-03T10:58:53.540Z,1.70
2017-12-03T11:01:37.708Z,1.70
2017-12-03T11:04:05.932Z,1.80
2017-12-03T11:06:34.294Z,1.90
2017-12-03T11:09:02.504Z,1.80
2017-12-03T11:11:30.762Z,1.90
2017-12-03T11:14:02.014Z,1.90
2017-12-03T11:16:30.244Z,1.90
2017-12-03T11:18:58.473Z,2.00
2017-12-03T11:21:26.708Z,1.90
2017-12-03T11:23:55.682Z,1.60
2017-12-03T11:26:24.862Z,1.60
2017-12-03T11:28:53.152Z,1.60
2017-12-03T11:31:22.156Z,1.70
2017-12-03T11:33:50.546Z,1.60
2017-12-03T11:36:18.834Z,1.50
2017-12-03T11:38:47.102Z,1.60
2017-12-03T11:41:16.111Z,1.40
2017-12-03T11:43:44.996Z,1.30
2017-12-03T11:46:13.245Z,1.30
2017-12-03T11:48:42.274Z,1.20
2017-12-03T11:51:10.513Z,1.10
2017-12-03T11:53:39.592Z,1.40
2017-12-03T11:56:07.834Z,1.30
2017-12-03T11:58:36.109Z,1.30
2017-12-03T12:01:04.377Z,1.30
2017-12-03T12:03:48.704Z,1.40
2017-12-03T12:06:17.002Z,1.30
2017-12-03T12:08:45.216Z,1.30
2017-12-03T12:11:13.499Z,1.40
2017-12-03T12:13:41.747Z,1.40
2017-12-03T12:16:10.017Z,1.20
2017-12-03T12:18:38.404Z,1.30
2017-12-03T12:21:06.666Z,1.10
2017-12-03T12:23:35.012Z,1.10
2017-12-03T12:26:03.247Z,1.00
2017-12-03T12:28:32.211Z,1.10
2017-12-03T12:31:00.583Z,1.10
2017-12-03T12:33:29.009Z,1.10
2017-12-03T12:35:57.264Z,1.00
2017-12-03T12:38:25.522Z,1.10
2017-12-03T12:40:53.791Z,0.80
2017-12-03T12:43:23.608Z,0.80
2017-12-03T12:45:52.987Z,0.90
2017-12-03T12:48:26.699Z,0.70
2017-12-03T12:50:55.256Z,0.80
2017-12-03T12:53:24.609Z,0.70
2017-12-03T12:55:52.965Z,0.80
2017-12-03T12:58:22.998Z,0.90
2017-12-03T13:00:51.250Z,0.80
2017-12-03T13:06:45.574Z,0.80
2017-12-03T13:09:13.886Z,0.90
2017-12-03T13:11:42.967Z,1.10
2017-12-03T13:14:11.983Z,1.10
2017-12-03T13:16:40.305Z,1.10
2017-12-03T13:19:09.295Z,1.10
2017-12-03T13:21:38.019Z,0.90
2017-12-03T13:24:06.462Z,0.90
2017-12-03T13:26:35.322Z,1.00
2017-12-03T13:29:03.574Z,0.90
2017-12-03T13:31:31.832Z,1.00
2017-12-03T13:34:00.388Z,1.20
2017-12-03T13:36:28.867Z,1.20
2017-12-03T13:38:57.121Z,0.90
2017-12-03T13:41:25.365Z,0.80
2017-12-03T13:43:53.622Z,0.90
2017-12-03T13:46:21.861Z,0.90
2017-12-03T13:48:50.160Z,0.60
2017-12-03T13:51:18.434Z,0.70
2017-12-03T13:53:46.730Z,0.80
2017-12-03T13:56:15.121Z,0.70
2017-12-03T13:58:43.994Z,0.70
2017-12-03T14:01:12.204Z,0.60
2017-12-03T14:03:41.233Z,0.50
2017-12-03T14:06:09.538Z,0.50
2017-12-03T14:08:38.601Z,0.50
2017-12-03T14:11:06.872Z,0.50
2017-12-03T14:13:36.081Z,0.30
2017-12-03T14:16:05.094Z,0.30
2017-12-03T14:18:33.316Z,0.30
2017-12-03T14:21:01.591Z,0.50
2017-12-03T14:23:29.931Z,0.60
2017-12-03T14:25:59.059Z,0.40
2017-12-03T14:28:28.097Z,0.70
2017-12-03T14:30:56.421Z,0.70
2017-12-03T14:33:24.905Z,0.80
2017-12-03T14:35:53.951Z,0.70
2017-12-03T14:38:22.988Z,0.70
2017-12-03T14:40:51.260Z,0.70
2017-12-03T14:43:19.538Z,0.80
2017-12-03T14:45:47.823Z,0.50
2017-12-03T14:48:16.858Z,0.40
2017-12-03T14:50:45.219Z,0.40
2017-12-03T14:53:14.263Z,0.30
2017-12-03T14:55:42.492Z,0.30
2017-12-03T14:58:11.568Z,0.40
2017-12-03T15:00:40.616Z,0.20
2017-12-03T15:03:08.884Z,0.20
2017-12-03T15:05:37.148Z,0.30
2017-12-03T15:08:05.400Z,0.30
2017-12-03T15:10:33.704Z,0.30
2017-12-03T15:13:02.051Z,0.40
2017-12-03T15:15:30.607Z,0.50
2017-12-03T15:17:58.811Z,0.40
2017-12-03T15:20:27.039Z,0.50
2017-12-03T15:22:55.424Z,0.50
2017-12-03T15:25:23.628Z,0.50
2017-12-03T15:27:51.912Z,0.50
2017-12-03T15:30:20.153Z,0.40
2017-12-03T15:32:48.441Z,0.40
2017-12-03T15:35:16.704Z,0.30
2017-12-03T15:37:44.908Z,0.40
2017-12-03T15:40:14.623Z,0.20
2017-12-03T15:42:43.613Z,0.30
2017-12-03T15:45:12.613Z,0.10
2017-12-03T15:47:40.985Z,0.20
2017-12-03T15:50:09.306Z,0.20
2017-12-03T15:52:39.237Z,0.30
2017-12-03T15:55:07.480Z,0.40
2017-12-03T15:57:35.712Z,0.40
2017-12-03T16:00:04.764Z,0.50
2017-12-03T16:02:33.742Z,0.50
2017-12-03T16:05:01.950Z,0.60
2017-12-03T16:07:30.213Z,0.60
2017-12-03T16:09:58.425Z,0.60
2017-12-03T16:12:27.391Z,0.60
2017-12-03T16:14:55.623Z,0.60
2017-12-03T16:17:23.874Z,0.50
2017-12-03T16:19:52.900Z,0.50
2017-12-03T16:22:21.138Z,0.50
2017-12-03T16:24:49.390Z,0.60
2017-12-03T16:27:17.633Z,0.50
2017-12-03T16:29:45.881Z,0.40
2017-12-03T16:32:14.140Z,0.30
2017-12-03T16:34:43.180Z,0.30
2017-12-03T16:37:11.465Z,0.30
2017-12-03T16:39:39.742Z,0.20
2017-12-03T16:42:07.972Z,0.20
2017-12-03T16:44:36.186Z,0.30
2017-12-03T16:47:04.458Z,0.20
2017-12-03T16:49:32.712Z,0.30
2017-12-03T16:52:00.989Z,0.30
2017-12-03T16:54:29.208Z,0.40
2017-12-03T16:56:57.493Z,0.40
2017-12-03T16:59:25.746Z,0.40
2017-12-03T17:01:53.991Z,0.40
2017-12-03T17:04:22.269Z,0.40
2017-12-03T17:06:50.533Z,0.40
2017-12-03T17:09:19.513Z,0.30
2017-12-03T17:11:47.787Z,0.30
2017-12-03T17:14:16.031Z,0.30
2017-12-03T17:16:44.268Z,0.30
2017-12-03T17:19:12.608Z,0.30
2017-12-03T17:21:40.853Z,0.30
2017-12-03T17:24:09.110Z,0.40
2017-12-03T17:26:37.373Z,0.30
2017-12-03T17:29:06.408Z,0.40
2017-12-03T17:31:34.749Z,0.40
2017-12-03T17:34:02.984Z,0.30
2017-12-03T17:36:31.400Z,0.40
2017-12-03T17:38:59.678Z,0.30
2017-12-03T17:41:54.797Z,0.30
2017-12-03T17:44:26.798Z,0.30
2017-12-03T17:46:55.389Z,0.20
2017-12-03T17:49:23.865Z,0.30
2017-12-03T17:51:52.099Z,0.40
2017-12-03T17:54:21.136Z,0.50
2017-12-03T17:56:49.583Z,0.50
2017-12-03T17:59:17.815Z,0.40
2017-12-03T18:01:46.440Z,0.40
2017-12-03T18:04:14.758Z,0.50
2017-12-03T18:06:43.773Z,0.60
2017-12-03T18:09:12.059Z,0.50
2017-12-03T18:11:41.072Z,0.50
2017-12-03T18:14:09.348Z,0.50
2017-12-03T18:16:37.590Z,0.50
2017-12-03T18:19:06.763Z,0.50
2017-12-03T18:21:35.014Z,0.50
2017-12-03T18:24:03.320Z,0.30
2017-12-03T18:26:32.021Z,0.20
2017-12-03T18:29:00.399Z,0.40
2017-12-03T18:31:29.546Z,0.40
2017-12-03T18:33:57.847Z,0.40
2017-12-03T18:36:30.598Z,0.30
2017-12-03T18:38:58.842Z,0.40
2017-12-03T18:41:27.067Z,0.50
2017-12-03T18:43:55.331Z,0.50
2017-12-03T18:46:24.359Z,0.40
2017-12-03T18:48:52.639Z,0.40
2017-12-03T18:51:21.052Z,0.40
2017-12-03T18:53:49.329Z,0.30
2017-12-03T18:56:17.579Z,0.40
2017-12-03T18:58:48.408Z,0.40
2017-12-03T19:01:16.765Z,0.40
2017-12-03T19:03:45.014Z,0.40
2017-12-03T19:06:13.267Z,0.40
2017-12-03T19:08:41.551Z,0.30
2017-12-03T19:11:09.811Z,0.30
2017-12-03T19:13:38.143Z,0.30
2017-12-03T19:16:06.396Z,0.20
2017-12-03T19:18:34.702Z,0.30
2017-12-03T19:21:02.982Z,0.40
2017-12-03T19:23:31.254Z,0.40
2017-12-03T19:25:59.578Z,0.40
2017-12-03T19:28:27.980Z,0.50
2017-12-03T19:30:56.295Z,0.50
2017-12-03T19:33:24.711Z,0.60
2017-12-03T19:35:53.799Z,0.70
2017-12-03T19:38:22.053Z,0.70
2017-12-03T19:40:50.342Z,0.70
2017-12-03T19:43:19.411Z,0.60
2017-12-03T19:45:48.507Z,0.60
2017-12-03T19:48:17.997Z,0.50
2017-12-03T19:50:46.315Z,0.50
2017-12-03T19:53:14.554Z,0.60
2017-12-03T19:55:43.611Z,0.80
2017-12-03T19:58:11.896Z,0.80
2017-12-03T20:00:40.210Z,0.90
2017-12-03T20:03:09.280Z,0.70
2017-12-03T20:05:37.642Z,0.70
2017-12-03T20:08:05.942Z,0.70
2017-12-03T20:10:34.149Z,0.60
2017-12-03T20:13:03.217Z,0.70
2017-12-03T20:15:31.486Z,0.70
2017-12-03T20:17:59.722Z,0.70
2017-12-03T20:20:27.996Z,0.70
2017-12-03T20:22:57.221Z,0.80
2017-12-03T20:25:25.517Z,0.80
2017-12-03T20:27:53.768Z,0.80
2017-12-03T20:30:22.021Z,0.70
2017-12-03T20:32:50.317Z,0.60
2017-12-03T20:35:19.329Z,0.70
2017-12-03T20:37:48.869Z,0.70
2017-12-03T20:40:17.184Z,0.70
2017-12-03T20:42:45.414Z,0.60
2017-12-03T20:45:14.426Z,0.80
2017-12-03T20:47:42.648Z,0.80
2017-12-03T20:50:10.893Z,0.80
2017-12-03T20:52:39.146Z,0.70
2017-12-03T20:55:08.682Z,0.70
2017-12-03T20:57:36.948Z,0.50
2017-12-03T21:00:05.212Z,0.60
2017-12-03T21:02:34.280Z,0.60
2017-12-03T21:05:02.541Z,0.60
2017-12-03T21:07:30.747Z,0.60
2017-12-03T21:09:59.066Z,0.70
2017-12-03T21:12:27.298Z,0.70
2017-12-03T21:14:55.570Z,0.60
2017-12-03T21:17:24.550Z,0.70
2017-12-03T21:19:54.057Z,0.70
2017-12-03T21:22:22.279Z,0.50
2017-12-03T21:24:51.331Z,0.70
2017-12-03T21:27:19.544Z,0.70
2017-12-03T21:29:48.618Z,0.90
2017-12-03T21:32:16.863Z,0.90
2017-12-03T21:34:45.067Z,0.90
2017-12-03T21:37:13.420Z,0.90
2017-12-03T21:39:41.705Z,0.80
2017-12-03T21:42:10.067Z,0.90
2017-12-03T21:44:38.337Z,0.90
2017-12-03T21:47:06.817Z,0.90
2017-12-03T21:49:35.032Z,0.90
2017-12-03T21:52:03.279Z,0.80
2017-12-03T21:54:32.349Z,0.80
2017-12-03T21:57:00.641Z,0.80
2017-12-03T21:59:28.916Z,0.70
2017-12-03T22:01:58.233Z,0.80
2017-12-03T22:04:26.510Z,0.70
2017-12-03T22:06:54.749Z,0.80
2017-12-03T22:09:23.903Z,0.80
2017-12-03T22:11:52.208Z,0.80
2017-12-03T22:14:20.537Z,0.80
2017-12-03T22:16:48.813Z,0.80
2017-12-03T22:19:17.036Z,0.70
2017-12-03T22:21:45.256Z,0.90
2017-12-03T22:24:13.509Z,0.90
2017-12-03T22:26:41.761Z,0.90
2017-12-03T22:29:10.114Z,0.80
2017-12-03T22:31:38.350Z,0.80
2017-12-03T22:34:06.753Z,0.90
2017-12-03T22:36:35.044Z,0.80
2017-12-03T22:39:03.354Z,0.80
2017-12-03T22:41:31.555Z,0.80
2017-12-03T22:43:59.818Z,0.80
2017-12-03T22:46:28.716Z,0.90
2017-12-03T22:48:57.010Z,0.90
2017-12-03T22:51:25.321Z,0.80
2017-12-03T22:53:54.436Z,0.80
2017-12-03T22:56:22.696Z,0.80
2017-12-03T22:58:50.977Z,0.80
2017-12-03T23:01:19.203Z,0.80
2017-12-03T23:03:48.280Z,0.70
2017-12-03T23:06:16.568Z,0.70
2017-12-03T23:08:44.813Z,0.70
2017-12-03T23:11:13.280Z,0.70
2017-12-03T23:13:41.601Z,0.90
2017-12-03T23:16:09.851Z,0.80
2017-12-03T23:18:38.100Z,0.70
2017-12-03T23:21:07.091Z,0.80
2017-12-03T23:23:35.404Z,0.80
2017-12-03T23:26:04.440Z,0.90
2017-12-03T23:28:32.687Z,0.90
2017-12-03T23:31:01.659Z,0.80
2017-12-03T23:33:29.882Z,0.80
2017-12-03T23:35:59.012Z,0.80
2017-12-03T23:38:27.273Z,0.80
2017-12-03T23:40:55.526Z,0.90
2017-12-03T23:43:23.738Z,0.90
2017-12-03T23:45:51.957Z,0.90
2017-12-03T23:48:20.203Z,0.80
2017-12-03T23:50:49.215Z,1.10
2017-12-03T23:53:19.080Z,0.90
2017-12-03T23:55:47.395Z,0.90
2017-12-03T23:58:15.778Z,0.90
